Time;durP1;ratioP1;P1;durP2;ratioP2;P2;SDS_P1;SDS_P2;PMS_P1;PMS_P2;Temp;Humidity;BMP_temperature;BMP_pressure;BME280_temperature;BME280_humidity;BME280_pressure;Samples;Min_cycle;Max_cycle;Signal;HPM_P1;HPM_P2
2022/01/16 00:00:48;;;;;;;;;;;13.00;96.10;;;;;;5053122;28;20007;-60
2022/01/16 00:05:57;;;;;;;;;;;12.70;96.00;;;;;;5053841;28;19927;-61
2022/01/16 00:08:23;;;;;;;;;;;12.70;96.00;;;;;;5036033;28;19921;-60
2022/01/16 00:10:49;;;;;;;;;;;12.80;96.00;;;;;;5053511;28;19967;-61
2022/01/16 00:13:14;;;;;;;;;;;12.70;96.00;;;;;;5053839;28;20020;-60
2022/01/16 00:15:43;;;;;;;;;;;13.10;96.10;;;;;;5053748;28;20023;-60
2022/01/16 00:18:19;;;;;;;;;;;12.80;96.00;;;;;;5052606;28;20396;-66
2022/01/16 00:20:44;;;;;;;;;;;12.90;96.00;;;;;;5053394;28;19974;-66
2022/01/16 00:23:10;;;;;;;;;;;12.80;96.00;;;;;;5053749;28;19924;-66
2022/01/16 00:25:36;;;;;;;;;;;12.60;95.90;;;;;;5053188;28;20289;-66
2022/01/16 00:28:02;;;;;;;;;;;13.00;96.00;;;;;;5053523;28;19924;-66
2022/01/16 00:30:27;;;;;;;;;;;12.70;96.00;;;;;;5053339;28;19983;-66
2022/01/16 00:32:59;;;;;;;;;;;12.60;95.90;;;;;;5054118;28;19976;-66
2022/01/16 00:35:24;;;;;;;;;;;12.70;95.60;;;;;;5052694;28;19921;-66
2022/01/16 00:37:52;;;;;;;;;;;12.90;96.00;;;;;;5053567;28;19944;-66
2022/01/16 00:40:17;;;;;;;;;;;12.60;95.90;;;;;;5053223;28;20015;-66
2022/01/16 00:42:43;;;;;;;;;;;12.60;95.90;;;;;;5053217;28;20016;-66
2022/01/16 00:45:09;;;;;;;;;;;12.90;96.00;;;;;;5053121;28;19928;-66
2022/01/16 00:47:34;;;;;;;;;;;12.80;96.00;;;;;;5035838;28;19924;-65
2022/01/16 00:50:00;;;;;;;;;;;12.80;95.90;;;;;;5053407;28;20382;-66
2022/01/16 00:52:26;;;;;;;;;;;12.80;95.90;;;;;;5045636;28;19935;-64
2022/01/16 00:54:51;;;;;;;;;;;12.70;95.90;;;;;;5061784;28;19978;-66
2022/01/16 00:57:17;;;;;;;;;;;12.70;95.90;;;;;;5073301;28;20369;-65
2022/01/16 00:59:42;;;;;;;;;;;12.70;95.90;;;;;;5073339;28;19972;-65
2022/01/16 01:02:08;;;;;;;;;;;12.80;95.60;;;;;;5076261;28;19920;-62
2022/01/16 01:04:34;;;;;;;;;;;12.80;95.90;;;;;;5077004;28;20362;-61
2022/01/16 01:06:59;;;;;;;;;;;12.90;96.00;;;;;;5077023;28;20338;-65
2022/01/16 01:09:25;;;;;;;;;;;12.70;95.90;;;;;;5050747;28;19921;-66
2022/01/16 01:11:51;;;;;;;;;;;12.60;95.90;;;;;;5036725;28;19921;-66
2022/01/16 01:14:26;;;;;;;;;;;12.50;95.80;;;;;;5036638;28;19921;-66
2022/01/16 01:16:54;;;;;;;;;;;12.80;95.90;;;;;;5036615;28;19925;-65
2022/01/16 01:19:27;;;;;;;;;;;12.60;95.80;;;;;;5037388;28;19921;-66
2022/01/16 01:21:53;;;;;;;;;;;12.70;95.80;;;;;;5037391;28;19921;-66
2022/01/16 01:24:19;;;;;;;;;;;12.60;95.80;;;;;;5036798;28;19923;-66
2022/01/16 01:26:54;;;;;;;;;;;12.60;95.70;;;;;;5036697;28;19928;-66
2022/01/16 01:29:21;;;;;;;;;;;12.60;95.80;;;;;;5036761;28;19921;-66
2022/01/16 01:31:47;;;;;;;;;;;;;;;;;;5036662;28;19921;-67
2022/01/16 01:34:13;;;;;;;;;;;12.40;95.70;;;;;;5036364;28;20370;-65
2022/01/16 01:36:38;;;;;;;;;;;12.50;95.80;;;;;;5036212;28;19928;-66
2022/01/16 01:39:04;;;;;;;;;;;12.40;95.70;;;;;;5036140;28;19928;-66
2022/01/16 01:41:30;;;;;;;;;;;12.80;95.80;;;;;;5036541;28;19975;-66
2022/01/16 01:52:07;;;;;;;;;;;12.60;95.70;;;;;;5056749;28;19927;-66
2022/01/16 01:54:33;;;;;;;;;;;12.90;95.80;;;;;;5056200;28;19967;-66
2022/01/16 01:56:59;;;;;;;;;;;12.60;95.30;;;;;;5055959;28;19960;-65
2022/01/16 01:59:25;;;;;;;;;;;12.60;95.60;;;;;;5051798;28;19920;-60
2022/01/16 02:01:50;;;;;;;;;;;12.70;95.70;;;;;;5018216;28;20424;-65
2022/01/16 02:04:16;;;;;;;;;;;12.40;95.60;;;;;;5035726;28;20302;-65
2022/01/16 02:06:42;;;;;;;;;;;12.60;95.70;;;;;;5036018;28;19931;-65
2022/01/16 02:09:07;;;;;;;;;;;12.60;95.70;;;;;;5018397;28;19970;-67
2022/01/16 02:11:33;;;;;;;;;;;12.60;95.60;;;;;;5035883;28;19920;-66
2022/01/16 02:14:09;;;;;;;;;;;12.80;95.70;;;;;;5035919;28;19956;-66
2022/01/16 02:33:23;;;;;;;;;;;;;;;;;;5035522;28;19925;-65
2022/01/16 02:35:51;;;;;;;;;;;12.70;95.60;;;;;;5035364;28;19921;-65
2022/01/16 02:38:17;;;;;;;;;;;12.30;95.50;;;;;;5035382;28;19921;-66
2022/01/16 02:40:49;;;;;;;;;;;12.40;95.50;;;;;;5035228;28;19928;-67
2022/01/16 02:43:17;;;;;;;;;;;12.70;95.60;;;;;;5046800;28;19942;-66
2022/01/16 02:45:45;;;;;;;;;;;12.60;95.60;;;;;;5055182;28;19916;-67
2022/01/16 02:48:10;;;;;;;;;;;12.70;95.60;;;;;;5055178;28;19927;-65
2022/01/16 02:50:36;;;;;;;;;;;12.80;95.60;;;;;;5049103;28;19917;-66
2022/01/16 02:53:07;;;;;;;;;;;12.60;95.50;;;;;;5035105;28;19931;-66
2022/01/16 02:55:32;;;;;;;;;;;12.40;95.40;;;;;;5034976;28;19968;-66
2022/01/16 02:57:58;;;;;;;;;;;12.20;95.40;;;;;;5034701;28;20367;-66
2022/01/16 03:00:24;;;;;;;;;;;12.90;95.50;;;;;;5034953;28;19968;-65
2022/01/16 03:02:49;;;;;;;;;;;12.50;95.40;;;;;;5034953;28;19921;-66
2022/01/16 03:05:15;;;;;;;;;;;12.50;95.40;;;;;;5035349;28;19921;-66
2022/01/16 03:07:41;;;;;;;;;;;12.80;95.40;;;;;;5035423;28;19928;-66
2022/01/16 03:12:47;;;;;;;;;;;12.60;95.40;;;;;;5034476;28;19972;-66
2022/01/16 03:15:13;;;;;;;;;;;;;;;;;;5035233;28;19928;-65
2022/01/16 03:21:52;;;;;;;;;;;12.50;95.30;;;;;;5034714;28;19921;-66
2022/01/16 03:23:15;;;;;;;;;;;12.30;95.20;;;;;;5034127;28;19920;-65
2022/01/16 03:25:41;;;;;;;;;;;12.60;95.20;;;;;;5034963;28;20413;-66
2022/01/16 03:28:07;;;;;;;;;;;12.40;95.00;;;;;;5034100;28;19996;-61
2022/01/16 03:30:32;;;;;;;;;;;12.40;95.10;;;;;;5034116;28;19975;-64
2022/01/16 03:32:58;;;;;;;;;;;12.40;95.10;;;;;;5034148;28;20019;-66
2022/01/16 03:35:24;;;;;;;;;;;12.20;95.00;;;;;;5034343;28;20022;-65
2022/01/16 03:37:49;;;;;;;;;;;12.40;95.00;;;;;;5034321;28;20378;-63
2022/01/16 03:40:16;;;;;;;;;;;12.30;95.00;;;;;;5034271;28;20322;-65
2022/01/16 03:42:42;;;;;;;;;;;12.20;94.90;;;;;;5041903;28;19925;-64
2022/01/16 03:45:08;;;;;;;;;;;12.20;94.90;;;;;;5053869;28;20442;-66
2022/01/16 03:47:34;;;;;;;;;;;12.40;95.00;;;;;;5053837;28;20011;-66
2022/01/16 03:49:59;;;;;;;;;;;12.30;94.90;;;;;;5054579;28;19979;-66
2022/01/16 03:52:25;;;;;;;;;;;12.30;94.90;;;;;;5054396;28;19928;-66
2022/01/16 03:54:51;;;;;;;;;;;;;;;;;;5035830;28;19920;-66
2022/01/16 03:57:16;;;;;;;;;;;12.20;94.90;;;;;;5053780;28;20359;-66
2022/01/16 03:59:42;;;;;;;;;;;12.20;94.90;;;;;;5061400;28;20019;-66
2022/01/16 04:02:08;;;;;;;;;;;12.60;94.90;;;;;;5057652;28;19928;-64
2022/01/16 04:04:33;;;;;;;;;;;12.40;94.90;;;;;;5053871;28;20019;-62
2022/01/16 04:07:02;;;;;;;;;;;12.40;94.90;;;;;;5053876;28;19962;-66
2022/01/16 04:09:27;;;;;;;;;;;12.40;94.80;;;;;;5053900;28;20263;-64
2022/01/16 04:11:56;;;;;;;;;;;12.10;94.80;;;;;;5053842;28;19924;-66
2022/01/16 04:17:06;;;;;;;;;;;12.50;94.80;;;;;;5034993;28;20433;-65
2022/01/16 04:19:32;;;;;;;;;;;12.30;94.70;;;;;;5033761;28;20023;-64
2022/01/16 04:21:58;;;;;;;;;;;;;;;;;;5033543;28;20306;-64
2022/01/16 04:24:24;;;;;;;;;;;12.20;94.70;;;;;;5033767;28;19921;-66
2022/01/16 04:26:50;;;;;;;;;;;12.30;94.70;;;;;;5033474;28;20290;-62
2022/01/16 04:29:16;;;;;;;;;;;12.40;94.80;;;;;;5033457;28;20489;-65
2022/01/16 04:31:41;;;;;;;;;;;12.40;94.80;;;;;;5033651;28;19925;-66
2022/01/16 04:34:07;;;;;;;;;;;12.20;94.70;;;;;;5033990;28;19976;-65
2022/01/16 04:36:33;;;;;;;;;;;12.40;94.80;;;;;;5035773;28;20015;-65
2022/01/16 04:38:58;;;;;;;;;;;12.40;94.80;;;;;;5037282;28;20458;-60
2022/01/16 04:44:08;;;;;;;;;;;12.30;94.80;;;;;;5057236;28;19928;-66
2022/01/16 04:46:34;;;;;;;;;;;12.10;94.70;;;;;;5057418;28;19925;-66
2022/01/16 04:49:00;;;;;;;;;;;12.40;94.70;;;;;;5056053;28;19928;-66
2022/01/16 04:51:26;;;;;;;;;;;12.10;94.70;;;;;;5037443;28;19959;-62
2022/01/16 04:53:51;;;;;;;;;;;12.30;94.70;;;;;;5019650;28;20406;-61
2022/01/16 04:56:17;;;;;;;;;;;12.30;94.70;;;;;;5036921;28;20011;-64
2022/01/16 04:58:43;;;;;;;;;;;12.00;94.70;;;;;;5037241;28;19928;-66
2022/01/16 05:01:09;;;;;;;;;;;12.30;94.70;;;;;;5037258;28;19921;-66
2022/01/16 05:03:34;;;;;;;;;;;12.50;94.80;;;;;;5037212;28;19925;-66
2022/01/16 05:06:01;;;;;;;;;;;12.40;94.80;;;;;;5037610;28;19921;-62
2022/01/16 05:08:28;;;;;;;;;;;12.40;94.80;;;;;;5036856;28;19921;-66
2022/01/16 05:10:56;;;;;;;;;;;12.20;94.70;;;;;;5036778;28;19921;-66
2022/01/16 05:18:32;;;;;;;;;;;12.40;94.80;;;;;;5036881;28;19921;-65
2022/01/16 05:20:58;;;;;;;;;;;12.10;94.70;;;;;;5036900;28;19928;-66
2022/01/16 05:23:23;;;;;;;;;;;12.30;94.80;;;;;;5037033;28;19969;-66
2022/01/16 05:25:49;;;;;;;;;;;12.20;94.70;;;;;;5036700;28;19924;-65
2022/01/16 05:28:14;;;;;;;;;;;12.20;94.80;;;;;;5036301;28;19921;-66
2022/01/16 05:30:40;;;;;;;;;;;12.20;94.80;;;;;;5037221;28;19921;-66
2022/01/16 05:33:07;;;;;;;;;;;12.20;94.70;;;;;;5036358;28;19967;-60
2022/01/16 05:35:32;;;;;;;;;;;12.20;94.70;;;;;;5036492;28;19921;-66
2022/01/16 05:37:58;;;;;;;;;;;12.30;94.80;;;;;;5036604;28;19983;-65
2022/01/16 05:40:24;;;;;;;;;;;;;;;;;;5036979;28;20366;-68
2022/01/16 05:42:50;;;;;;;;;;;12.10;94.70;;;;;;5031632;28;19928;-66
2022/01/16 05:45:16;;;;;;;;;;;;;;;;;;5036418;28;19921;-65
2022/01/16 05:47:41;;;;;;;;;;;12.40;94.80;;;;;;5035633;28;20389;-64
2022/01/16 05:50:07;;;;;;;;;;;12.00;94.70;;;;;;5036377;28;19928;-66
2022/01/16 05:52:33;;;;;;;;;;;12.20;94.80;;;;;;5036635;28;19917;-66
2022/01/16 05:54:58;;;;;;;;;;;12.40;94.80;;;;;;5035757;28;19920;-66
2022/01/16 05:57:24;;;;;;;;;;;12.40;94.80;;;;;;5036447;28;19921;-66
2022/01/16 05:59:50;;;;;;;;;;;12.10;94.70;;;;;;5036060;28;19921;-65
2022/01/16 06:02:15;;;;;;;;;;;12.30;94.80;;;;;;5036678;28;19928;-65
2022/01/16 06:04:41;;;;;;;;;;;12.30;94.80;;;;;;5036068;28;19921;-66
2022/01/16 06:07:07;;;;;;;;;;;12.30;94.80;;;;;;5036022;28;19952;-66
2022/01/16 06:09:32;;;;;;;;;;;12.20;94.80;;;;;;5035699;28;20353;-64
2022/01/16 06:11:59;;;;;;;;;;;;;;;;;;5035924;28;19967;-66
2022/01/16 06:14:24;;;;;;;;;;;12.10;94.70;;;;;;5036115;28;19925;-62
2022/01/16 06:16:51;;;;;;;;;;;12.20;94.80;;;;;;5035813;28;19963;-60
2022/01/16 06:19:17;;;;;;;;;;;12.20;94.80;;;;;;5035394;28;19927;-66
2022/01/16 06:21:42;;;;;;;;;;;12.10;94.70;;;;;;5035764;28;20000;-65
2022/01/16 06:24:08;;;;;;;;;;;12.30;94.80;;;;;;5035394;28;19921;-66
2022/01/16 06:26:34;;;;;;;;;;;12.30;94.80;;;;;;5017131;28;19931;-62
2022/01/16 06:28:59;;;;;;;;;;;12.20;94.80;;;;;;5035574;28;20012;-65
2022/01/16 06:31:25;;;;;;;;;;;12.20;94.80;;;;;;5036085;28;19999;-66
2022/01/16 06:33:51;;;;;;;;;;;12.20;94.80;;;;;;5035567;28;20062;-66
2022/01/16 06:36:17;;;;;;;;;;;;;;;;;;5035118;28;20019;-63
2022/01/16 06:38:42;;;;;;;;;;;12.30;94.80;;;;;;5035306;28;19921;-66
2022/01/16 06:41:09;;;;;;;;;;;;;;;;;;5037687;28;19975;-66
2022/01/16 06:43:34;;;;;;;;;;;12.20;94.80;;;;;;5054934;28;19928;-66
2022/01/16 06:46:00;;;;;;;;;;;12.10;94.80;;;;;;5054959;28;20019;-66
2022/01/16 06:48:25;;;;;;;;;;;12.10;94.80;;;;;;5050561;28;19971;-65
2022/01/16 06:50:51;;;;;;;;;;;12.30;94.90;;;;;;5035217;28;19932;-65
2022/01/16 06:53:17;;;;;;;;;;;12.10;94.80;;;;;;5035221;28;20406;-65
2022/01/16 06:55:42;;;;;;;;;;;12.00;94.70;;;;;;5034960;28;19925;-61
2022/01/16 06:58:08;;;;;;;;;;;12.50;94.90;;;;;;5034146;28;19921;-66
2022/01/16 07:00:34;;;;;;;;;;;12.10;94.80;;;;;;5034553;28;19925;-65
2022/01/16 07:02:59;;;;;;;;;;;12.20;94.90;;;;;;5034970;28;19921;-65
2022/01/16 07:05:25;;;;;;;;;;;12.10;94.80;;;;;;5027566;28;20294;-66
2022/01/16 07:07:51;;;;;;;;;;;;;;;;;;5068139;28;20014;-66
2022/01/16 07:10:17;;;;;;;;;;;12.30;94.90;;;;;;5075563;28;20278;-65
2022/01/16 07:12:43;;;;;;;;;;;12.10;94.90;;;;;;5074508;28;19916;-65
2022/01/16 07:15:09;;;;;;;;;;;12.40;94.90;;;;;;5074609;28;20003;-65
2022/01/16 07:17:34;;;;;;;;;;;12.10;94.90;;;;;;5074220;28;20014;-66
2022/01/16 07:20:00;;;;;;;;;;;12.30;94.90;;;;;;5074111;28;20019;-67
2022/01/16 07:22:26;;;;;;;;;;;12.00;94.90;;;;;;5064523;28;19960;-66
2022/01/16 07:24:51;;;;;;;;;;;12.20;95.00;;;;;;5034209;28;19921;-65
2022/01/16 07:27:17;;;;;;;;;;;12.20;94.90;;;;;;5033944;28;19921;-65
2022/01/16 07:29:43;;;;;;;;;;;12.10;95.00;;;;;;5034242;28;19964;-66
2022/01/16 07:32:09;;;;;;;;;;;;;;;;;;5034502;28;19964;-66
2022/01/16 07:34:34;;;;;;;;;;;12.20;95.00;;;;;;5034407;28;19921;-65
2022/01/16 07:37:00;;;;;;;;;;;12.10;95.00;;;;;;5034126;28;19921;-64
2022/01/16 07:39:26;;;;;;;;;;;12.20;95.00;;;;;;5034488;28;19964;-66
2022/01/16 07:41:52;;;;;;;;;;;12.40;95.10;;;;;;5042634;28;19932;-66
2022/01/16 07:44:17;;;;;;;;;;;12.40;95.10;;;;;;5054209;28;19916;-66
2022/01/16 07:46:43;;;;;;;;;;;12.30;95.10;;;;;;5054145;28;19920;-65
2022/01/16 07:49:09;;;;;;;;;;;12.30;95.10;;;;;;5053864;28;19971;-66
2022/01/16 07:51:34;;;;;;;;;;;12.20;95.10;;;;;;5054070;28;19917;-66
2022/01/16 07:54:00;;;;;;;;;;;12.00;95.00;;;;;;5053813;28;19966;-65
2022/01/16 07:56:26;;;;;;;;;;;12.20;95.10;;;;;;5049421;28;20001;-66
2022/01/16 07:58:51;;;;;;;;;;;12.10;95.10;;;;;;5033991;28;19925;-65
2022/01/16 08:01:17;;;;;;;;;;;12.60;95.20;;;;;;5034140;28;20359;-65
2022/01/16 08:03:43;;;;;;;;;;;12.20;95.10;;;;;;5034038;28;19965;-65
2022/01/16 08:06:10;;;;;;;;;;;12.10;95.10;;;;;;5033974;28;19921;-66
2022/01/16 08:08:37;;;;;;;;;;;12.30;95.10;;;;;;5033980;28;19917;-64
2022/01/16 08:11:03;;;;;;;;;;;12.50;95.20;;;;;;5033802;28;20263;-66
2022/01/16 08:13:28;;;;;;;;;;;12.20;95.10;;;;;;5034712;28;19967;-66
2022/01/16 08:15:54;;;;;;;;;;;12.40;95.20;;;;;;5033904;28;20287;-66
2022/01/16 08:18:19;;;;;;;;;;;12.10;95.10;;;;;;5033913;28;19921;-62
2022/01/16 08:20:45;;;;;;;;;;;12.40;95.20;;;;;;5033497;28;20375;-66
2022/01/16 08:23:11;;;;;;;;;;;12.50;95.20;;;;;;5033839;28;19925;-66
2022/01/16 08:25:36;;;;;;;;;;;12.50;95.20;;;;;;5033739;28;20291;-62
2022/01/16 08:28:02;;;;;;;;;;;12.40;95.20;;;;;;5033436;28;20256;-65
2022/01/16 08:30:28;;;;;;;;;;;12.30;95.20;;;;;;5034319;28;20272;-66
2022/01/16 08:32:54;;;;;;;;;;;;;;;;;;5033472;28;19928;-65
2022/01/16 08:35:19;;;;;;;;;;;12.20;95.20;;;;;;5033378;28;19925;-65
2022/01/16 08:37:45;;;;;;;;;;;12.50;95.30;;;;;;5033434;28;19928;-66
2022/01/16 08:40:11;;;;;;;;;;;12.30;95.30;;;;;;5033335;28;19925;-66
2022/01/16 08:42:40;;;;;;;;;;;12.30;95.30;;;;;;5047868;28;19921;-63
2022/01/16 08:45:06;;;;;;;;;;;12.30;95.30;;;;;;5035562;28;20318;-62
2022/01/16 08:47:31;;;;;;;;;;;12.20;95.20;;;;;;5047843;28;19925;-65
2022/01/16 08:49:58;;;;;;;;;;;12.20;95.20;;;;;;5033638;28;19959;-65
2022/01/16 08:52:27;;;;;;;;;;;12.10;95.20;;;;;;5033596;28;19916;-66
2022/01/16 08:54:52;;;;;;;;;;;12.10;95.20;;;;;;5033476;28;19921;-63
2022/01/16 08:57:18;;;;;;;;;;;12.50;95.30;;;;;;5033585;28;20339;-66
2022/01/16 08:59:44;;;;;;;;;;;12.30;95.30;;;;;;5033440;28;20020;-66
2022/01/16 09:02:09;;;;;;;;;;;12.40;95.30;;;;;;5033572;28;20287;-66
2022/01/16 09:04:35;;;;;;;;;;;12.60;95.40;;;;;;5033724;28;19921;-66
2022/01/16 09:07:01;;;;;;;;;;;12.40;95.30;;;;;;5033173;28;19932;-66
2022/01/16 09:09:27;;;;;;;;;;;;;;;;;;5034300;28;20015;-68
2022/01/16 09:11:53;;;;;;;;;;;12.50;95.40;;;;;;5033427;28;20278;-66
2022/01/16 09:14:18;;;;;;;;;;;12.50;95.40;;;;;;5033462;28;19928;-66
2022/01/16 09:16:44;;;;;;;;;;;12.30;95.40;;;;;;5033376;28;19944;-66
2022/01/16 09:19:10;;;;;;;;;;;12.60;95.40;;;;;;5032944;28;19928;-66
2022/01/16 09:21:36;;;;;;;;;;;12.50;95.40;;;;;;5034110;28;19983;-66
2022/01/16 09:24:01;;;;;;;;;;;12.20;95.30;;;;;;5019273;28;19975;-66
2022/01/16 09:26:27;;;;;;;;;;;12.60;95.40;;;;;;5036433;28;19925;-66
2022/01/16 09:28:53;;;;;;;;;;;12.60;95.50;;;;;;5036413;28;19933;-66
2022/01/16 09:31:19;;;;;;;;;;;12.50;95.40;;;;;;5036735;28;19928;-64
2022/01/16 09:33:44;;;;;;;;;;;12.50;95.40;;;;;;5036706;28;19921;-65
2022/01/16 09:36:11;;;;;;;;;;;;;;;;;;5036600;28;20329;-66
2022/01/16 09:38:37;;;;;;;;;;;12.20;95.40;;;;;;5036883;28;19971;-66
2022/01/16 09:41:04;;;;;;;;;;;12.50;95.40;;;;;;5038044;28;19975;-66
2022/01/16 09:43:30;;;;;;;;;;;12.50;95.40;;;;;;5056093;28;19950;-66
2022/01/16 09:45:56;;;;;;;;;;;12.40;95.40;;;;;;5056463;28;20378;-66
2022/01/16 09:48:22;;;;;;;;;;;;;;;;;;5056391;28;19921;-66
2022/01/16 09:50:47;;;;;;;;;;;12.30;95.40;;;;;;5056034;28;19927;-66
2022/01/16 09:53:13;;;;;;;;;;;12.40;95.40;;;;;;5056294;28;19921;-65
2022/01/16 09:55:39;;;;;;;;;;;12.60;95.50;;;;;;5049381;28;19921;-67
2022/01/16 09:58:05;;;;;;;;;;;12.40;95.40;;;;;;5018365;28;19921;-66
2022/01/16 10:00:31;;;;;;;;;;;12.80;95.50;;;;;;5036421;28;19931;-65
2022/01/16 10:02:57;;;;;;;;;;;12.60;95.50;;;;;;5036180;28;19943;-65
2022/01/16 10:05:23;;;;;;;;;;;12.40;95.40;;;;;;5036061;28;20363;-65
2022/01/16 10:07:49;;;;;;;;;;;12.70;95.50;;;;;;5036070;28;19920;-67
2022/01/16 10:10:15;;;;;;;;;;;12.70;95.50;;;;;;5044979;28;20011;-66
2022/01/16 10:12:47;;;;;;;;;;;12.70;95.50;;;;;;5050159;28;19943;-68
2022/01/16 10:15:24;;;;;;;;;;;12.60;95.50;;;;;;5035629;28;19921;-66
2022/01/16 10:17:50;;;;;;;;;;;;;;;;;;5035895;28;19996;-67
2022/01/16 10:20:18;;;;;;;;;;;12.70;95.50;;;;;;5035778;28;19921;-66
2022/01/16 10:22:45;;;;;;;;;;;12.80;95.50;;;;;;5035784;28;19928;-66
2022/01/16 10:25:11;;;;;;;;;;;12.80;95.50;;;;;;5035576;28;19925;-66
2022/01/16 10:27:37;;;;;;;;;;;12.60;95.50;;;;;;5035518;28;19997;-66
2022/01/16 10:30:07;;;;;;;;;;;12.80;95.50;;;;;;5036158;28;19921;-66
2022/01/16 10:32:35;;;;;;;;;;;12.70;95.50;;;;;;5035272;28;20260;-66
2022/01/16 10:35:01;;;;;;;;;;;;;;;;;;5034792;28;19925;-67
2022/01/16 10:37:29;;;;;;;;;;;12.80;95.60;;;;;;5035542;28;20298;-66
2022/01/16 10:39:59;;;;;;;;;;;12.70;95.50;;;;;;5035109;28;19921;-66
2022/01/16 10:42:25;;;;;;;;;;;12.80;95.60;;;;;;5048237;28;19927;-67
2022/01/16 10:44:54;;;;;;;;;;;12.70;95.50;;;;;;5055312;28;19958;-65
2022/01/16 10:47:28;;;;;;;;;;;12.70;95.50;;;;;;5043201;28;19917;-66
2022/01/16 10:49:57;;;;;;;;;;;12.70;95.60;;;;;;5035305;28;19928;-66
2022/01/16 10:52:23;;;;;;;;;;;;;;;;;;5035227;28;19923;-63
2022/01/16 10:54:48;;;;;;;;;;;12.50;95.50;;;;;;5035505;28;20435;-66
2022/01/16 10:57:21;;;;;;;;;;;12.80;95.60;;;;;;5017548;28;19917;-60
2022/01/16 10:59:47;;;;;;;;;;;12.90;95.70;;;;;;5035016;28;19933;-66
2022/01/16 11:02:13;;;;;;;;;;;12.50;95.60;;;;;;5034832;28;19921;-63
2022/01/16 11:04:38;;;;;;;;;;;12.70;95.60;;;;;;5035129;28;19921;-66
2022/01/16 11:07:05;;;;;;;;;;;12.60;95.60;;;;;;5034672;28;19972;-59
2022/01/16 11:09:31;;;;;;;;;;;12.50;95.60;;;;;;5034950;28;19921;-66
2022/01/16 11:11:59;;;;;;;;;;;12.90;95.70;;;;;;5034518;28;19928;-66
2022/01/16 11:14:26;;;;;;;;;;;12.60;95.70;;;;;;5034833;28;19921;-60
2022/01/16 11:16:52;;;;;;;;;;;12.80;95.70;;;;;;5034446;28;19928;-65
2022/01/16 11:19:21;;;;;;;;;;;12.90;95.80;;;;;;5034638;28;19921;-60
2022/01/16 11:21:50;;;;;;;;;;;12.60;95.70;;;;;;5032829;28;19942;-60
2022/01/16 11:24:46;;;;;;;;;;;12.70;95.70;;;;;;5037112;28;20274;-66
2022/01/16 11:27:14;;;;;;;;;;;12.70;95.70;;;;;;5054273;28;20012;-63
2022/01/16 11:29:40;;;;;;;;;;;;;;;;;;5054481;28;19920;-65
2022/01/16 11:32:06;;;;;;;;;;;12.80;95.80;;;;;;5054388;28;19920;-66
2022/01/16 11:34:31;;;;;;;;;;;12.50;95.70;;;;;;5054583;28;19927;-62
2022/01/16 11:36:57;;;;;;;;;;;12.90;95.70;;;;;;5054014;28;19925;-65
2022/01/16 11:39:23;;;;;;;;;;;12.90;95.80;;;;;;5054173;28;20278;-65
2022/01/16 11:41:54;;;;;;;;;;;12.90;95.80;;;;;;5036199;28;19920;-66
2022/01/16 11:44:20;;;;;;;;;;;;;;;;;;5054172;28;19921;-65
2022/01/16 11:46:49;;;;;;;;;;;12.80;95.80;;;;;;5054226;28;19927;-60
2022/01/16 11:49:19;;;;;;;;;;;12.70;95.80;;;;;;5053922;28;20294;-66
2022/01/16 11:51:51;;;;;;;;;;;12.60;95.80;;;;;;5036604;28;19920;-66
2022/01/16 11:54:22;;;;;;;;;;;12.70;95.80;;;;;;5053371;28;20423;-60
2022/01/16 11:56:49;;;;;;;;;;;12.70;95.80;;;;;;5053992;28;19924;-60
2022/01/16 11:59:15;;;;;;;;;;;12.50;95.80;;;;;;5054489;28;19921;-66
2022/01/16 12:01:44;;;;;;;;;;;12.80;95.90;;;;;;5053984;28;19932;-65
2022/01/16 12:04:29;;;;;;;;;;;12.70;95.80;;;;;;5053633;28;19979;-66
2022/01/16 12:06:57;;;;;;;;;;;12.70;95.80;;;;;;5053901;28;19956;-60
2022/01/16 12:09:51;;;;;;;;;;;13.20;96.00;;;;;;5053607;28;19979;-60
2022/01/16 12:12:16;;;;;;;;;;;12.40;95.80;;;;;;5049926;28;19927;-61
2022/01/16 12:14:48;;;;;;;;;;;12.70;95.90;;;;;;5053816;28;20305;-61
2022/01/16 12:17:29;;;;;;;;;;;12.60;95.90;;;;;;5053838;28;19921;-63
2022/01/16 12:19:55;;;;;;;;;;;12.80;95.90;;;;;;5053645;28;19920;-60
2022/01/16 12:22:43;;;;;;;;;;;12.70;95.90;;;;;;5053828;28;19971;-61
2022/01/16 12:25:18;;;;;;;;;;;12.80;95.90;;;;;;5053665;28;20016;-59
2022/01/16 12:27:47;;;;;;;;;;;12.70;95.90;;;;;;5053559;28;19920;-60
2022/01/16 12:30:16;;;;;;;;;;;12.90;96.00;;;;;;5052560;28;19921;-66
2022/01/16 12:32:58;;;;;;;;;;;13.00;96.00;;;;;;5054233;28;19924;-60
2022/01/16 12:35:39;;;;;;;;;;;12.90;96.00;;;;;;5053596;28;19927;-59
2022/01/16 12:38:08;;;;;;;;;;;12.60;95.90;;;;;;5053238;28;19917;-60
2022/01/16 12:40:34;;;;;;;;;;;12.80;96.00;;;;;;5053225;28;19927;-60
2022/01/16 12:43:04;;;;;;;;;;;13.00;96.10;;;;;;5053469;28;19920;-60
2022/01/16 12:45:35;;;;;;;;;;;12.70;96.00;;;;;;5048310;28;19921;-66
2022/01/16 12:48:01;;;;;;;;;;;12.90;96.10;;;;;;5033655;28;20361;-60
2022/01/16 12:50:28;;;;;;;;;;;12.70;96.00;;;;;;5033298;28;19976;-60
2022/01/16 12:52:53;;;;;;;;;;;12.60;96.00;;;;;;5033651;28;19943;-66
2022/01/16 12:55:19;;;;;;;;;;;;;;;;;;5033957;28;20008;-61
2022/01/16 12:57:45;;;;;;;;;;;12.80;96.10;;;;;;5017810;28;19921;-63
2022/01/16 13:00:11;;;;;;;;;;;12.90;96.10;;;;;;5037298;28;19932;-63
2022/01/16 13:02:37;;;;;;;;;;;12.90;96.10;;;;;;5037816;28;20348;-66
2022/01/16 13:05:03;;;;;;;;;;;12.90;96.10;;;;;;5037765;28;20007;-66
2022/01/16 13:07:29;;;;;;;;;;;12.90;96.10;;;;;;5037152;28;19960;-60
2022/01/16 13:09:54;;;;;;;;;;;12.90;96.10;;;;;;5036861;28;20016;-66
2022/01/16 13:12:22;;;;;;;;;;;12.90;96.20;;;;;;5037127;28;20016;-66
2022/01/16 13:14:47;;;;;;;;;;;12.80;96.10;;;;;;5042168;28;20079;-66
2022/01/16 13:17:13;;;;;;;;;;;12.70;96.10;;;;;;5065609;28;19999;-66
2022/01/16 13:19:49;;;;;;;;;;;12.80;96.10;;;;;;5063370;28;19928;-60
2022/01/16 13:22:16;;;;;;;;;;;12.70;96.10;;;;;;5036950;28;20399;-66
2022/01/16 13:24:52;;;;;;;;;;;12.80;96.20;;;;;;5036978;28;19924;-60
2022/01/16 13:27:17;;;;;;;;;;;12.70;96.20;;;;;;5019114;28;19921;-61
2022/01/16 13:29:44;;;;;;;;;;;12.80;96.20;;;;;;5036785;28;20278;-60
2022/01/16 13:32:12;;;;;;;;;;;13.00;96.30;;;;;;5019111;28;20083;-66
2022/01/16 13:34:42;;;;;;;;;;;12.60;96.20;;;;;;5018771;28;20007;-60
2022/01/16 13:37:12;;;;;;;;;;;12.70;96.20;;;;;;5046700;28;20350;-66
2022/01/16 13:39:38;;;;;;;;;;;13.00;96.30;;;;;;5056516;28;19920;-60
2022/01/16 13:42:10;;;;;;;;;;;12.70;96.20;;;;;;5056007;28;20007;-60
2022/01/16 13:44:35;;;;;;;;;;;12.70;96.20;;;;;;5056481;28;19989;-66
2022/01/16 13:47:01;;;;;;;;;;;13.00;96.30;;;;;;5056389;28;19942;-66
2022/01/16 13:49:27;;;;;;;;;;;12.90;96.30;;;;;;5056348;28;20003;-66
2022/01/16 13:51:56;;;;;;;;;;;12.70;96.20;;;;;;5056340;28;19921;-60
2022/01/16 13:54:27;;;;;;;;;;;12.80;96.30;;;;;;5025855;28;19921;-60
2022/01/16 13:56:53;;;;;;;;;;;12.60;96.20;;;;;;5036341;28;19927;-66
2022/01/16 13:59:19;;;;;;;;;;;;;;;;;;5036169;28;20361;-61
2022/01/16 14:01:51;;;;;;;;;;;12.90;96.30;;;;;;5035941;28;19921;-60
2022/01/16 14:04:17;;;;;;;;;;;13.10;96.40;;;;;;5036520;28;19917;-60
2022/01/16 14:06:52;;;;;;;;;;;12.80;96.30;;;;;;5036113;28;20279;-60
2022/01/16 14:09:21;;;;;;;;;;;12.90;96.40;;;;;;5035493;28;19921;-66
2022/01/16 14:11:48;;;;;;;;;;;12.80;96.30;;;;;;5036583;28;20371;-66
2022/01/16 14:14:14;;;;;;;;;;;;;;;;;;5036017;28;19921;-66
2022/01/16 14:16:48;;;;;;;;;;;12.90;96.40;;;;;;5035950;28;20402;-61
2022/01/16 14:19:21;;;;;;;;;;;12.60;96.30;;;;;;5035870;28;19944;-59
2022/01/16 14:21:59;;;;;;;;;;;12.50;96.30;;;;;;5035872;28;20290;-67
2022/01/16 14:24:35;;;;;;;;;;;13.10;96.40;;;;;;5035703;28;20333;-60
2022/01/16 14:27:02;;;;;;;;;;;12.80;96.30;;;;;;5036268;28;19925;-64
2022/01/16 14:29:27;;;;;;;;;;;12.90;96.40;;;;;;5035264;28;19928;-66
2022/01/16 14:31:54;;;;;;;;;;;12.80;96.30;;;;;;5035629;28;19921;-60
2022/01/16 14:34:20;;;;;;;;;;;12.70;96.30;;;;;;5035603;28;20340;-66
2022/01/16 14:36:46;;;;;;;;;;;12.80;96.30;;;;;;5035578;28;19921;-60
2022/01/16 14:39:13;;;;;;;;;;;13.00;96.40;;;;;;5035427;28;19925;-60
2022/01/16 14:41:43;;;;;;;;;;;13.00;96.40;;;;;;5042256;28;20015;-66
2022/01/16 14:44:09;;;;;;;;;;;13.00;96.40;;;;;;5052572;28;19921;-63
2022/01/16 14:46:35;;;;;;;;;;;12.90;96.40;;;;;;5035078;28;19921;-60
2022/01/16 14:49:00;;;;;;;;;;;12.90;96.40;;;;;;5034995;28;19983;-64
2022/01/16 14:51:26;;;;;;;;;;;13.10;96.40;;;;;;5035286;28;20277;-60
2022/01/16 14:53:52;;;;;;;;;;;;;;;;;;5035277;28;19920;-61
2022/01/16 14:56:18;;;;;;;;;;;12.90;96.40;;;;;;5035051;28;19976;-66
2022/01/16 14:58:43;;;;;;;;;;;12.90;96.40;;;;;;5034839;28;19921;-66
2022/01/16 15:01:10;;;;;;;;;;;12.90;96.40;;;;;;5036848;28;20007;-65
2022/01/16 15:03:36;;;;;;;;;;;13.10;96.40;;;;;;5054957;28;20271;-62
2022/01/16 15:06:06;;;;;;;;;;;12.90;96.40;;;;;;5036772;28;19927;-66
2022/01/16 15:08:42;;;;;;;;;;;12.90;96.40;;;;;;5054538;28;20007;-61